Últimos artigos:
VirtualBox sobre Debian 10 (buster) não encontra dispositivos USB
Falta de som no Morse Runner em Linux?
Touchpad tapping, em Debian Buster (10)
Acender um LED com a tensão da rede eléctrica
Programação do Yaesu FT-60 para os EasySats
AO-91 (RadFxSat Fox-1B) está no Ar!
Últimas fotos:
Últimos METARs:
LPAZ 271800Z 02007KT 360V060 9999 FEW010 B...
LPFR 271800Z 26005KT CAVOK 17/13 Q1021=
LPHR 271800Z VRB02KT 9999 FEW020 SCT035 19...
LPLA 271800Z /////KT 9999 FEW024 BKN042 19...
LPMA 271800Z 01006KT 320V050 9999 SCT016 S...
LPPD 271800Z 01007KT 340V040 9999 FEW022 B...
LPPR 271800Z 18016KT 3800 -RADZ VCFG OVC00...
LPPS 271800Z 36008KT 9999 FEW015 20/14 Q10...
LPPT 271800Z 22008KT 9999 FEW008 BKN013 16...
Últimos QSOs:
2020/06/05-17:40 6m IK6DTB (GIUSEPPE)
2020/06/05-17:35 6m EA8OM (HEIJO)
2020/06/05-17:31 6m I0SNY (NICOLA)
2020/06/05-17:27 6m DF4WC (ANDREAS)
2020/06/05-17:13 6m DO3EF (PATRICK)
2020/06/05-17:09 6m DK7ZT (BERND)
  UTC
Rpi-6 CPU Temp: 454642.0 °C (251812Z)
IN51oq 1838Z /////KT //// 18/15 Q1017=
163614